Grant, New York
Current Conditions -  °F | °C
As of 12:53 AM on Sunday 26 Oct 2014 (Local Time) from KRME Reporting Station
Scattered Clouds Scattered Clouds  
Wind Chill: 50°   Ceiling: Unl
Heat Index: 50°   Visibility: 10mi
Dew Point: 47°   Wind: 10mph
Humidity: 89%   Direction: 270°W
Pressure: 29.55"   Gusts: NA
Location:  43.4607°N, 74.933°W
Report Text: KRME 260453Z AUTO 27009KT 10SM FEW060 FEW075 SCT095 10/08 A2955 RMK AO2 LTG DSNT SE AND S RAE17 TSE00 SLP003 P0002 T01000083 401720022
Loading
Personal Weather Stations






























Interactive Weather Map New forecast layout! Learn more

10-Day Weather Forecast

Advertisements
Track Severe Weather on mobile